sensor_id;sensor_type;location;lat;lon;timestamp;temperature;humidity
37956;DHT22;23776;51.592;7.180;2022-10-31T00:02:03;15.10;1.00
37956;DHT22;23776;51.592;7.180;2022-10-31T00:04:29;15.00;1.00
37956;DHT22;23776;51.592;7.180;2022-10-31T00:06:55;15.10;1.00
37956;DHT22;23776;51.592;7.180;2022-10-31T00:09:21;15.10;1.00
37956;DHT22;23776;51.592;7.180;2022-10-31T00:11:46;15.10;1.00
37956;DHT22;23776;51.592;7.180;2022-10-31T00:14:12;15.10;1.00
37956;DHT22;23776;51.592;7.180;2022-10-31T00:16:37;15.10;1.00
37956;DHT22;23776;51.592;7.180;2022-10-31T00:19:05;15.20;1.00
37956;DHT22;23776;51.592;7.180;2022-10-31T00:21:33;15.20;1.00
37956;DHT22;23776;51.592;7.180;2022-10-31T00:23:59;15.20;1.00
37956;DHT22;23776;51.592;7.180;2022-10-31T00:26:29;15.10;1.00
37956;DHT22;23776;51.592;7.180;2022-10-31T00:28:56;15.10;1.00
37956;DHT22;23776;51.592;7.180;2022-10-31T00:31:21;15.70;1.00
37956;DHT22;23776;51.592;7.180;2022-10-31T00:33:47;14.30;1.00
37956;DHT22;23776;51.592;7.180;2022-10-31T00:36:15;14.90;1.00
37956;DHT22;23776;51.592;7.180;2022-10-31T00:38:42;14.80;1.00
37956;DHT22;23776;51.592;7.180;2022-10-31T00:41:08;14.80;1.00
37956;DHT22;23776;51.592;7.180;2022-10-31T00:43:34;14.70;1.00
37956;DHT22;23776;51.592;7.180;2022-10-31T00:45:59;14.70;1.00
37956;DHT22;23776;51.592;7.180;2022-10-31T00:48:26;14.60;1.00
37956;DHT22;23776;51.592;7.180;2022-10-31T00:50:51;14.50;1.00
37956;DHT22;23776;51.592;7.180;2022-10-31T00:53:17;14.40;1.00
37956;DHT22;23776;51.592;7.180;2022-10-31T00:55:42;14.40;1.00
37956;DHT22;23776;51.592;7.180;2022-10-31T00:58:08;14.40;1.00
37956;DHT22;23776;51.592;7.180;2022-10-31T01:00:34;14.30;1.00
37956;DHT22;23776;51.592;7.180;2022-10-31T01:02:59;14.60;1.00
37956;DHT22;23776;51.592;7.180;2022-10-31T01:05:25;14.30;1.00
37956;DHT22;23776;51.592;7.180;2022-10-31T01:07:51;14.40;1.00
37956;DHT22;23776;51.592;7.180;2022-10-31T01:10:17;14.40;1.00
37956;DHT22;23776;51.592;7.180;2022-10-31T01:12:46;14.60;1.00
37956;DHT22;23776;51.592;7.180;2022-10-31T01:15:14;14.50;1.00
37956;DHT22;23776;51.592;7.180;2022-10-31T01:17:40;14.70;1.00
37956;DHT22;23776;51.592;7.180;2022-10-31T01:20:07;14.60;1.00
37956;DHT22;23776;51.592;7.180;2022-10-31T01:22:33;14.60;1.00
37956;DHT22;23776;51.592;7.180;2022-10-31T01:24:59;14.60;1.00
37956;DHT22;23776;51.592;7.180;2022-10-31T01:27:24;14.60;1.00
37956;DHT22;23776;51.592;7.180;2022-10-31T01:29:50;14.60;1.00
37956;DHT22;23776;51.592;7.180;2022-10-31T01:32:15;15.20;1.00
37956;DHT22;23776;51.592;7.180;2022-10-31T01:34:41;14.60;1.00
37956;DHT22;23776;51.592;7.180;2022-10-31T01:37:07;15.00;1.00
37956;DHT22;23776;51.592;7.180;2022-10-31T01:39:32;14.60;1.00
37956;DHT22;23776;51.592;7.180;2022-10-31T01:41:58;15.40;1.00
37956;DHT22;23776;51.592;7.180;2022-10-31T01:47:05;14.50;1.00
37956;DHT22;23776;51.592;7.180;2022-10-31T01:49:53;14.60;1.00
37956;DHT22;23776;51.592;7.180;2022-10-31T01:52:36;14.60;1.00
37956;DHT22;23776;51.592;7.180;2022-10-31T01:55:18;14.60;1.00
37956;DHT22;23776;51.592;7.180;2022-10-31T01:57:48;15.30;1.00
37956;DHT22;23776;51.592;7.180;2022-10-31T02:00:17;14.80;1.00
37956;DHT22;23776;51.592;7.180;2022-10-31T02:02:44;14.80;1.00
37956;DHT22;23776;51.592;7.180;2022-10-31T02:05:16;15.00;1.00
37956;DHT22;23776;51.592;7.180;2022-10-31T02:07:48;14.80;1.00
37956;DHT22;23776;51.592;7.180;2022-10-31T02:10:16;14.80;1.00
37956;DHT22;23776;51.592;7.180;2022-10-31T02:12:41;14.90;1.00
37956;DHT22;23776;51.592;7.180;2022-10-31T02:15:08;14.90;1.00
37956;DHT22;23776;51.592;7.180;2022-10-31T02:17:34;14.80;1.00
37956;DHT22;23776;51.592;7.180;2022-10-31T02:20:19;14.80;1.00
37956;DHT22;23776;51.592;7.180;2022-10-31T02:33:38;14.60;1.00
37956;DHT22;23776;51.592;7.180;2022-10-31T02:36:19;14.50;1.00
37956;DHT22;23776;51.592;7.180;2022-10-31T02:39:06;14.40;1.00
37956;DHT22;23776;51.592;7.180;2022-10-31T02:41:48;14.40;1.00
37956;DHT22;23776;51.592;7.180;2022-10-31T02:44:16;14.40;1.00
37956;DHT22;23776;51.592;7.180;2022-10-31T02:46:53;14.40;1.00
37956;DHT22;23776;51.592;7.180;2022-10-31T02:49:40;14.30;1.00
37956;DHT22;23776;51.592;7.180;2022-10-31T02:52:21;14.20;1.00
37956;DHT22;23776;51.592;7.180;2022-10-31T02:54:47;14.10;1.00
37956;DHT22;23776;51.592;7.180;2022-10-31T02:57:15;14.10;1.00
37956;DHT22;23776;51.592;7.180;2022-10-31T02:59:50;14.10;1.00
37956;DHT22;23776;51.592;7.180;2022-10-31T03:02:35;14.10;1.00
37956;DHT22;23776;51.592;7.180;2022-10-31T03:05:18;14.00;1.00
37956;DHT22;23776;51.592;7.180;2022-10-31T03:07:54;14.00;1.00
37956;DHT22;23776;51.592;7.180;2022-10-31T03:13:34;13.80;1.00
37956;DHT22;23776;51.592;7.180;2022-10-31T03:16:09;13.90;1.00
37956;DHT22;23776;51.592;7.180;2022-10-31T03:18:56;13.70;1.00
37956;DHT22;23776;51.592;7.180;2022-10-31T03:21:35;13.70;1.00
37956;DHT22;23776;51.592;7.180;2022-10-31T03:24:05;13.70;1.00
37956;DHT22;23776;51.592;7.180;2022-10-31T03:26:31;13.60;1.00
37956;DHT22;23776;51.592;7.180;2022-10-31T03:29:03;13.60;1.00
37956;DHT22;23776;51.592;7.180;2022-10-31T03:31:40;13.60;1.00
37956;DHT22;23776;51.592;7.180;2022-10-31T03:34:09;13.50;1.00
37956;DHT22;23776;51.592;7.180;2022-10-31T03:36:38;13.40;1.00
37956;DHT22;23776;51.592;7.180;2022-10-31T03:39:06;13.40;1.00
37956;DHT22;23776;51.592;7.180;2022-10-31T03:41:35;13.30;1.00
37956;DHT22;23776;51.592;7.180;2022-10-31T03:44:08;13.30;1.00
37956;DHT22;23776;51.592;7.180;2022-10-31T03:46:36;13.20;1.00
37956;DHT22;23776;51.592;7.180;2022-10-31T03:49:02;13.10;1.00
37956;DHT22;23776;51.592;7.180;2022-10-31T03:51:49;13.10;1.00
37956;DHT22;23776;51.592;7.180;2022-10-31T03:54:28;13.10;2.40
37956;DHT22;23776;51.592;7.180;2022-10-31T03:57:02;13.00;1.80
37956;DHT22;23776;51.592;7.180;2022-10-31T03:59:32;13.10;2.60
37956;DHT22;23776;51.592;7.180;2022-10-31T04:02:02;13.20;2.60
37956;DHT22;23776;51.592;7.180;2022-10-31T04:04:29;12.90;3.20
37956;DHT22;23776;51.592;7.180;2022-10-31T04:06:57;12.90;1.00
37956;DHT22;23776;51.592;7.180;2022-10-31T04:09:25;12.90;1.00
37956;DHT22;23776;51.592;7.180;2022-10-31T04:11:53;12.80;3.90
37956;DHT22;23776;51.592;7.180;2022-10-31T04:14:21;12.80;1.00
37956;DHT22;23776;51.592;7.180;2022-10-31T04:16:49;15.10;1.00
37956;DHT22;23776;51.592;7.180;2022-10-31T04:19:15;13.30;1.00
37956;DHT22;23776;51.592;7.180;2022-10-31T04:21:41;12.80;1.00
37956;DHT22;23776;51.592;7.180;2022-10-31T04:24:09;12.70;1.00
37956;DHT22;23776;51.592;7.180;2022-10-31T04:26:35;12.70;1.00
37956;DHT22;23776;51.592;7.180;2022-10-31T04:29:00;12.70;1.00
37956;DHT22;23776;51.592;7.180;2022-10-31T04:31:27;12.60;1.00
37956;DHT22;23776;51.592;7.180;2022-10-31T04:33:53;12.60;1.00
37956;DHT22;23776;51.592;7.180;2022-10-31T04:36:18;12.60;1.00
37956;DHT22;23776;51.592;7.180;2022-10-31T04:38:44;12.60;1.00
37956;DHT22;23776;51.592;7.180;2022-10-31T04:41:09;12.60;1.00
37956;DHT22;23776;51.592;7.180;2022-10-31T04:43:35;12.70;1.00
37956;DHT22;23776;51.592;7.180;2022-10-31T04:46:01;12.60;1.00
37956;DHT22;23776;51.592;7.180;2022-10-31T04:48:26;12.70;1.00
37956;DHT22;23776;51.592;7.180;2022-10-31T04:50:52;12.60;1.00
37956;DHT22;23776;51.592;7.180;2022-10-31T04:53:17;12.70;1.00
37956;DHT22;23776;51.592;7.180;2022-10-31T04:55:43;12.70;1.00
37956;DHT22;23776;51.592;7.180;2022-10-31T04:58:08;12.80;1.00
37956;DHT22;23776;51.592;7.180;2022-10-31T05:00:34;12.80;1.00
37956;DHT22;23776;51.592;7.180;2022-10-31T05:03:00;12.80;1.00
37956;DHT22;23776;51.592;7.180;2022-10-31T05:05:30;12.80;1.00
37956;DHT22;23776;51.592;7.180;2022-10-31T05:07:56;12.70;1.00
37956;DHT22;23776;51.592;7.180;2022-10-31T05:10:24;12.80;1.00
37956;DHT22;23776;51.592;7.180;2022-10-31T05:12:55;12.60;1.00
37956;DHT22;23776;51.592;7.180;2022-10-31T05:15:22;12.60;1.00
37956;DHT22;23776;51.592;7.180;2022-10-31T05:17:48;12.60;1.00
37956;DHT22;23776;51.592;7.180;2022-10-31T05:20:15;12.60;1.00
37956;DHT22;23776;51.592;7.180;2022-10-31T05:22:48;12.50;1.30
37956;DHT22;23776;51.592;7.180;2022-10-31T05:25:14;12.60;5.10
37956;DHT22;23776;51.592;7.180;2022-10-31T05:27:44;12.50;5.70
37956;DHT22;23776;51.592;7.180;2022-10-31T05:30:12;12.50;3.70
37956;DHT22;23776;51.592;7.180;2022-10-31T05:32:43;12.40;8.00
37956;DHT22;23776;51.592;7.180;2022-10-31T05:35:18;12.40;10.40
37956;DHT22;23776;51.592;7.180;2022-10-31T05:37:44;10.40;14.10
37956;DHT22;23776;51.592;7.180;2022-10-31T05:40:12;12.40;13.70
37956;DHT22;23776;51.592;7.180;2022-10-31T05:42:39;12.70;14.00
37956;DHT22;23776;51.592;7.180;2022-10-31T05:45:09;12.40;10.60
37956;DHT22;23776;51.592;7.180;2022-10-31T05:47:35;12.40;8.10
37956;DHT22;23776;51.592;7.180;2022-10-31T05:50:01;12.40;6.60
37956;DHT22;23776;51.592;7.180;2022-10-31T05:52:26;12.30;6.20
37956;DHT22;23776;51.592;7.180;2022-10-31T05:54:52;12.30;6.70
37956;DHT22;23776;51.592;7.180;2022-10-31T05:57:17;12.30;4.50
37956;DHT22;23776;51.592;7.180;2022-10-31T05:59:43;12.20;5.30
37956;DHT22;23776;51.592;7.180;2022-10-31T06:02:09;12.20;4.70
37956;DHT22;23776;51.592;7.180;2022-10-31T06:04:34;10.20;6.50
37956;DHT22;23776;51.592;7.180;2022-10-31T06:07:00;12.20;6.60
37956;DHT22;23776;51.592;7.180;2022-10-31T06:09:25;12.20;6.50
37956;DHT22;23776;51.592;7.180;2022-10-31T06:11:51;12.50;9.30
37956;DHT22;23776;51.592;7.180;2022-10-31T06:14:17;12.20;8.10
37956;DHT22;23776;51.592;7.180;2022-10-31T06:16:43;12.20;12.70
37956;DHT22;23776;51.592;7.180;2022-10-31T06:19:08;12.20;11.90
37956;DHT22;23776;51.592;7.180;2022-10-31T06:21:34;12.30;15.50
37956;DHT22;23776;51.592;7.180;2022-10-31T06:23:59;12.30;16.80
37956;DHT22;23776;51.592;7.180;2022-10-31T06:26:25;12.50;21.50
37956;DHT22;23776;51.592;7.180;2022-10-31T06:28:51;12.50;20.40
37956;DHT22;23776;51.592;7.180;2022-10-31T06:31:16;12.40;23.80
37956;DHT22;23776;51.592;7.180;2022-10-31T06:33:42;12.40;20.00
37956;DHT22;23776;51.592;7.180;2022-10-31T06:36:08;12.40;20.50
37956;DHT22;23776;51.592;7.180;2022-10-31T06:38:34;12.40;22.20
37956;DHT22;23776;51.592;7.180;2022-10-31T06:41:04;12.50;18.10
37956;DHT22;23776;51.592;7.180;2022-10-31T06:43:30;12.40;17.30
37956;DHT22;23776;51.592;7.180;2022-10-31T06:45:57;12.40;17.60
37956;DHT22;23776;51.592;7.180;2022-10-31T06:48:22;12.40;14.90
37956;DHT22;23776;51.592;7.180;2022-10-31T06:50:48;12.40;17.10
37956;DHT22;23776;51.592;7.180;2022-10-31T06:53:14;12.60;21.20
37956;DHT22;23776;51.592;7.180;2022-10-31T06:55:40;13.20;19.50
37956;DHT22;23776;51.592;7.180;2022-10-31T06:58:06;12.40;18.60
37956;DHT22;23776;51.592;7.180;2022-10-31T07:00:32;12.40;18.00
37956;DHT22;23776;51.592;7.180;2022-10-31T07:03:03;12.40;18.70
37956;DHT22;23776;51.592;7.180;2022-10-31T07:05:29;12.50;20.90
37956;DHT22;23776;51.592;7.180;2022-10-31T07:08:00;12.50;18.90
37956;DHT22;23776;51.592;7.180;2022-10-31T07:10:28;12.50;18.00
37956;DHT22;23776;51.592;7.180;2022-10-31T07:12:59;12.60;18.00
37956;DHT22;23776;51.592;7.180;2022-10-31T07:15:26;12.70;16.00
37956;DHT22;23776;51.592;7.180;2022-10-31T07:17:52;12.70;15.30
37956;DHT22;23776;51.592;7.180;2022-10-31T07:20:18;12.70;14.20
37956;DHT22;23776;51.592;7.180;2022-10-31T07:22:44;12.70;13.60
37956;DHT22;23776;51.592;7.180;2022-10-31T07:25:10;12.80;16.10
37956;DHT22;23776;51.592;7.180;2022-10-31T07:27:37;12.80;13.10
37956;DHT22;23776;51.592;7.180;2022-10-31T07:30:03;12.80;12.30
37956;DHT22;23776;51.592;7.180;2022-10-31T07:32:40;12.80;12.80
37956;DHT22;23776;51.592;7.180;2022-10-31T07:35:08;12.90;15.20
37956;DHT22;23776;51.592;7.180;2022-10-31T07:37:34;12.70;14.80
37956;DHT22;23776;51.592;7.180;2022-10-31T07:40:00;12.90;13.70
37956;DHT22;23776;51.592;7.180;2022-10-31T07:42:25;12.90;14.60
37956;DHT22;23776;51.592;7.180;2022-10-31T07:44:51;12.80;15.20
37956;DHT22;23776;51.592;7.180;2022-10-31T07:47:16;12.90;15.70
37956;DHT22;23776;51.592;7.180;2022-10-31T07:49:42;14.30;16.30
37956;DHT22;23776;51.592;7.180;2022-10-31T07:52:07;13.00;14.80
37956;DHT22;23776;51.592;7.180;2022-10-31T07:54:33;13.00;15.60
37956;DHT22;23776;51.592;7.180;2022-10-31T07:56:59;13.10;16.50
37956;DHT22;23776;51.592;7.180;2022-10-31T07:59:25;13.90;16.10
37956;DHT22;23776;51.592;7.180;2022-10-31T08:01:51;13.10;15.70
37956;DHT22;23776;51.592;7.180;2022-10-31T08:04:16;13.20;15.50
37956;DHT22;23776;51.592;7.180;2022-10-31T08:06:42;13.30;15.10
37956;DHT22;23776;51.592;7.180;2022-10-31T08:09:07;13.30;13.90
37956;DHT22;23776;51.592;7.180;2022-10-31T08:11:33;13.40;13.50
37956;DHT22;23776;51.592;7.180;2022-10-31T08:13:59;13.50;12.60
37956;DHT22;23776;51.592;7.180;2022-10-31T08:16:24;13.50;11.40
37956;DHT22;23776;51.592;7.180;2022-10-31T08:18:50;13.60;10.80
37956;DHT22;23776;51.592;7.180;2022-10-31T08:21:16;13.70;10.20
37956;DHT22;23776;51.592;7.180;2022-10-31T08:23:41;13.70;9.00
37956;DHT22;23776;51.592;7.180;2022-10-31T08:26:07;13.70;4.40
37956;DHT22;23776;51.592;7.180;2022-10-31T08:28:32;13.80;4.80
37956;DHT22;23776;51.592;7.180;2022-10-31T08:30:58;13.80;1.60
37956;DHT22;23776;51.592;7.180;2022-10-31T08:33:24;13.80;2.30
37956;DHT22;23776;51.592;7.180;2022-10-31T08:35:50;13.90;1.00
37956;DHT22;23776;51.592;7.180;2022-10-31T08:38:16;14.00;1.00
37956;DHT22;23776;51.592;7.180;2022-10-31T08:40:41;13.90;1.00
37956;DHT22;23776;51.592;7.180;2022-10-31T08:43:14;14.10;1.00
37956;DHT22;23776;51.592;7.180;2022-10-31T08:45:41;14.20;1.00
37956;DHT22;23776;51.592;7.180;2022-10-31T08:48:13;14.20;1.00
37956;DHT22;23776;51.592;7.180;2022-10-31T08:50:40;14.30;1.00
37956;DHT22;23776;51.592;7.180;2022-10-31T08:53:11;14.60;1.00
37956;DHT22;23776;51.592;7.180;2022-10-31T08:55:38;14.50;1.00
37956;DHT22;23776;51.592;7.180;2022-10-31T08:58:06;14.60;1.00
37956;DHT22;23776;51.592;7.180;2022-10-31T09:00:33;14.70;1.00
37956;DHT22;23776;51.592;7.180;2022-10-31T09:03:16;14.80;1.00
37956;DHT22;23776;51.592;7.180;2022-10-31T09:05:42;14.80;1.00
37956;DHT22;23776;51.592;7.180;2022-10-31T09:08:08;14.90;1.00
37956;DHT22;23776;51.592;7.180;2022-10-31T09:10:35;15.20;1.00
37956;DHT22;23776;51.592;7.180;2022-10-31T09:13:12;15.00;1.00
37956;DHT22;23776;51.592;7.180;2022-10-31T09:15:40;15.00;1.00
37956;DHT22;23776;51.592;7.180;2022-10-31T09:18:07;15.10;1.00
37956;DHT22;23776;51.592;7.180;2022-10-31T09:20:34;15.10;1.00
37956;DHT22;23776;51.592;7.180;2022-10-31T09:23:21;15.30;1.00
37956;DHT22;23776;51.592;7.180;2022-10-31T09:25:48;15.40;1.00
37956;DHT22;23776;51.592;7.180;2022-10-31T09:28:16;15.60;1.00
37956;DHT22;23776;51.592;7.180;2022-10-31T09:30:45;15.60;1.00
37956;DHT22;23776;51.592;7.180;2022-10-31T09:33:12;15.80;1.00
37956;DHT22;23776;51.592;7.180;2022-10-31T09:35:38;15.90;1.00
37956;DHT22;23776;51.592;7.180;2022-10-31T09:38:08;16.10;99.90
37956;DHT22;23776;51.592;7.180;2022-10-31T09:40:43;16.20;99.90
37956;DHT22;23776;51.592;7.180;2022-10-31T09:45:53;16.40;99.90
37956;DHT22;23776;51.592;7.180;2022-10-31T09:51:25;16.50;99.90
37956;DHT22;23776;51.592;7.180;2022-10-31T09:56:45;16.70;99.90
37956;DHT22;23776;51.592;7.180;2022-10-31T09:59:19;16.80;99.90
37956;DHT22;23776;51.592;7.180;2022-10-31T10:01:59;16.90;92.90
37956;DHT22;23776;51.592;7.180;2022-10-31T10:07:17;17.10;1.00
37956;DHT22;23776;51.592;7.180;2022-10-31T10:09:44;17.20;99.90
37956;DHT22;23776;51.592;7.180;2022-10-31T10:12:26;17.20;99.90
37956;DHT22;23776;51.592;7.180;2022-10-31T10:17:37;17.20;99.90
37956;DHT22;23776;51.592;7.180;2022-10-31T10:20:27;17.20;99.90
37956;DHT22;23776;51.592;7.180;2022-10-31T10:25:38;17.30;99.90
37956;DHT22;23776;51.592;7.180;2022-10-31T10:28:35;17.90;99.90
37956;DHT22;23776;51.592;7.180;2022-10-31T10:31:12;17.50;99.90
37956;DHT22;23776;51.592;7.180;2022-10-31T10:36:36;17.90;99.90
37956;DHT22;23776;51.592;7.180;2022-10-31T10:39:15;17.90;1.00
37956;DHT22;23776;51.592;7.180;2022-10-31T10:41:49;18.00;99.90
37956;DHT22;23776;51.592;7.180;2022-10-31T10:44:36;18.10;99.90
37956;DHT22;23776;51.592;7.180;2022-10-31T10:47:21;18.20;31.00
37956;DHT22;23776;51.592;7.180;2022-10-31T10:50:15;18.40;1.00
37956;DHT22;23776;51.592;7.180;2022-10-31T10:55:41;19.50;99.90
37956;DHT22;23776;51.592;7.180;2022-10-31T10:58:10;20.10;1.00
37956;DHT22;23776;51.592;7.180;2022-10-31T11:00:41;20.60;99.90
37956;DHT22;23776;51.592;7.180;2022-10-31T11:03:08;21.10;99.90
37956;DHT22;23776;51.592;7.180;2022-10-31T11:05:56;21.20;95.00
37956;DHT22;23776;51.592;7.180;2022-10-31T11:13:42;20.20;1.00
37956;DHT22;23776;51.592;7.180;2022-10-31T11:16:12;20.20;1.00
37956;DHT22;23776;51.592;7.180;2022-10-31T11:18:44;19.90;37.40
37956;DHT22;23776;51.592;7.180;2022-10-31T11:21:28;19.80;92.90
37956;DHT22;23776;51.592;7.180;2022-10-31T11:24:04;19.60;99.90
37956;DHT22;23776;51.592;7.180;2022-10-31T11:26:37;19.50;99.90
37956;DHT22;23776;51.592;7.180;2022-10-31T11:29:05;19.50;99.90
37956;DHT22;23776;51.592;7.180;2022-10-31T11:31:36;19.40;99.90
37956;DHT22;23776;51.592;7.180;2022-10-31T11:34:04;19.40;99.90
37956;DHT22;23776;51.592;7.180;2022-10-31T11:36:36;19.30;99.90
37956;DHT22;23776;51.592;7.180;2022-10-31T11:39:05;19.30;99.90
37956;DHT22;23776;51.592;7.180;2022-10-31T11:41:38;19.20;99.90
37956;DHT22;23776;51.592;7.180;2022-10-31T11:44:36;19.20;99.90
37956;DHT22;23776;51.592;7.180;2022-10-31T11:47:09;19.30;1.00
37956;DHT22;23776;51.592;7.180;2022-10-31T11:49:39;19.40;99.90
37956;DHT22;23776;51.592;7.180;2022-10-31T11:57:23;20.10;99.90
37956;DHT22;23776;51.592;7.180;2022-10-31T11:59:54;20.50;99.90
37956;DHT22;23776;51.592;7.180;2022-10-31T12:02:21;20.50;19.30
37956;DHT22;23776;51.592;7.180;2022-10-31T12:05:06;20.70;1.00
37956;DHT22;23776;51.592;7.180;2022-10-31T12:07:33;20.70;1.00
37956;DHT22;23776;51.592;7.180;2022-10-31T12:09:59;20.80;1.00
37956;DHT22;23776;51.592;7.180;2022-10-31T12:20:38;20.60;1.00
37956;DHT22;23776;51.592;7.180;2022-10-31T12:28:30;20.60;1.00
37956;DHT22;23776;51.592;7.180;2022-10-31T12:33:47;20.60;1.00
37956;DHT22;23776;51.592;7.180;2022-10-31T12:39:21;20.20;1.00
37956;DHT22;23776;51.592;7.180;2022-10-31T12:41:52;20.90;1.00
37956;DHT22;23776;51.592;7.180;2022-10-31T12:44:35;20.10;1.00
37956;DHT22;23776;51.592;7.180;2022-10-31T12:47:24;20.20;1.00
37956;DHT22;23776;51.592;7.180;2022-10-31T12:57:53;20.50;1.00
37956;DHT22;23776;51.592;7.180;2022-10-31T13:00:21;20.50;1.00
37956;DHT22;23776;51.592;7.180;2022-10-31T13:05:40;20.60;1.00
37956;DHT22;23776;51.592;7.180;2022-10-31T13:08:08;20.50;1.00
37956;DHT22;23776;51.592;7.180;2022-10-31T13:13:37;20.60;1.00
37956;DHT22;23776;51.592;7.180;2022-10-31T13:16:19;20.70;1.00
37956;DHT22;23776;51.592;7.180;2022-10-31T13:18:56;20.70;1.00
37956;DHT22;23776;51.592;7.180;2022-10-31T13:21:30;20.80;1.00
37956;DHT22;23776;51.592;7.180;2022-10-31T13:23:58;20.80;1.00
37956;DHT22;23776;51.592;7.180;2022-10-31T13:26:40;20.90;1.00
37956;DHT22;23776;51.592;7.180;2022-10-31T13:29:49;20.90;1.00
37956;DHT22;23776;51.592;7.180;2022-10-31T13:32:19;20.90;1.00
37956;DHT22;23776;51.592;7.180;2022-10-31T13:34:51;20.90;1.00
37956;DHT22;23776;51.592;7.180;2022-10-31T13:37:23;20.80;1.00
37956;DHT22;23776;51.592;7.180;2022-10-31T13:40:20;20.80;1.00
37956;DHT22;23776;51.592;7.180;2022-10-31T13:45:14;20.70;1.00
37956;DHT22;23776;51.592;7.180;2022-10-31T13:47:41;20.60;1.00
37956;DHT22;23776;51.592;7.180;2022-10-31T13:50:21;20.50;1.00
37956;DHT22;23776;51.592;7.180;2022-10-31T13:52:47;20.40;1.00
37956;DHT22;23776;51.592;7.180;2022-10-31T13:55:39;20.30;1.00
37956;DHT22;23776;51.592;7.180;2022-10-31T13:58:24;20.30;1.00
37956;DHT22;23776;51.592;7.180;2022-10-31T14:03:25;20.30;1.00
37956;DHT22;23776;51.592;7.180;2022-10-31T14:05:55;20.20;1.00
37956;DHT22;23776;51.592;7.180;2022-10-31T14:08:23;20.20;1.00
37956;DHT22;23776;51.592;7.180;2022-10-31T14:10:54;20.20;4.70
37956;DHT22;23776;51.592;7.180;2022-10-31T14:13:35;20.10;25.90
37956;DHT22;23776;51.592;7.180;2022-10-31T14:16:25;20.10;22.00
37956;DHT22;23776;51.592;7.180;2022-10-31T14:19:08;20.00;53.10
37956;DHT22;23776;51.592;7.180;2022-10-31T14:21:43;20.10;88.60
37956;DHT22;23776;51.592;7.180;2022-10-31T14:27:02;20.10;99.90
37956;DHT22;23776;51.592;7.180;2022-10-31T14:29:33;20.00;99.90
37956;DHT22;23776;51.592;7.180;2022-10-31T14:32:14;20.00;99.90
37956;DHT22;23776;51.592;7.180;2022-10-31T14:45:24;19.80;99.90
37956;DHT22;23776;51.592;7.180;2022-10-31T14:53:02;20.10;1.00
37956;DHT22;23776;51.592;7.180;2022-10-31T14:55:29;19.80;1.00
37956;DHT22;23776;51.592;7.180;2022-10-31T14:58:01;19.80;1.00
37956;DHT22;23776;51.592;7.180;2022-10-31T15:00:29;19.60;97.00
37956;DHT22;23776;51.592;7.180;2022-10-31T15:05:33;19.50;99.90
37956;DHT22;23776;51.592;7.180;2022-10-31T15:08:25;19.40;99.90
37956;DHT22;23776;51.592;7.180;2022-10-31T15:10:51;19.20;24.70
37956;DHT22;23776;51.592;7.180;2022-10-31T15:13:19;19.10;99.90
37956;DHT22;23776;51.592;7.180;2022-10-31T15:15:46;19.10;99.90
37956;DHT22;23776;51.592;7.180;2022-10-31T15:18:19;19.00;1.00
37956;DHT22;23776;51.592;7.180;2022-10-31T15:20:46;19.00;99.90
37956;DHT22;23776;51.592;7.180;2022-10-31T15:23:28;18.90;99.90
37956;DHT22;23776;51.592;7.180;2022-10-31T15:25:59;18.80;1.00
37956;DHT22;23776;51.592;7.180;2022-10-31T15:28:28;18.80;99.90
37956;DHT22;23776;51.592;7.180;2022-10-31T15:30:56;18.80;99.90
37956;DHT22;23776;51.592;7.180;2022-10-31T15:33:28;18.70;99.90
37956;DHT22;23776;51.592;7.180;2022-10-31T15:35:59;18.70;1.00
37956;DHT22;23776;51.592;7.180;2022-10-31T15:38:26;18.70;47.50
37956;DHT22;23776;51.592;7.180;2022-10-31T15:40:58;18.60;99.90
37956;DHT22;23776;51.592;7.180;2022-10-31T15:43:24;18.60;99.90
37956;DHT22;23776;51.592;7.180;2022-10-31T15:45:50;18.40;1.00
37956;DHT22;23776;51.592;7.180;2022-10-31T15:48:23;18.30;99.90
37956;DHT22;23776;51.592;7.180;2022-10-31T15:50:56;18.30;1.00
37956;DHT22;23776;51.592;7.180;2022-10-31T15:56:02;18.30;99.90
37956;DHT22;23776;51.592;7.180;2022-10-31T15:58:28;18.20;99.90
37956;DHT22;23776;51.592;7.180;2022-10-31T16:01:03;18.20;99.90
37956;DHT22;23776;51.592;7.180;2022-10-31T16:03:32;18.10;1.00
37956;DHT22;23776;51.592;7.180;2022-10-31T16:06:00;18.10;1.00
37956;DHT22;23776;51.592;7.180;2022-10-31T16:11:16;17.90;99.90
37956;DHT22;23776;51.592;7.180;2022-10-31T16:14:01;17.70;99.90
37956;DHT22;23776;51.592;7.180;2022-10-31T16:16:28;17.60;1.00
37956;DHT22;23776;51.592;7.180;2022-10-31T16:18:56;17.50;10.20
37956;DHT22;23776;51.592;7.180;2022-10-31T16:21:33;17.30;99.90
37956;DHT22;23776;51.592;7.180;2022-10-31T16:26:50;17.20;99.90
37956;DHT22;23776;51.592;7.180;2022-10-31T16:29:27;17.10;99.90
37956;DHT22;23776;51.592;7.180;2022-10-31T16:31:53;17.10;99.90
37956;DHT22;23776;51.592;7.180;2022-10-31T16:34:23;17.10;99.90
37956;DHT22;23776;51.592;7.180;2022-10-31T16:36:49;17.10;99.90
37956;DHT22;23776;51.592;7.180;2022-10-31T16:39:15;17.50;99.90
37956;DHT22;23776;51.592;7.180;2022-10-31T16:41:47;17.00;99.90
37956;DHT22;23776;51.592;7.180;2022-10-31T16:44:23;17.00;99.90
37956;DHT22;23776;51.592;7.180;2022-10-31T16:47:12;17.00;99.90
37956;DHT22;23776;51.592;7.180;2022-10-31T16:49:38;16.90;99.90
37956;DHT22;23776;51.592;7.180;2022-10-31T16:52:04;16.90;99.90
37956;DHT22;23776;51.592;7.180;2022-10-31T16:54:29;17.00;99.90
37956;DHT22;23776;51.592;7.180;2022-10-31T16:56:55;16.80;99.90
37956;DHT22;23776;51.592;7.180;2022-10-31T16:59:20;17.10;99.90
37956;DHT22;23776;51.592;7.180;2022-10-31T17:01:48;16.70;99.90
37956;DHT22;23776;51.592;7.180;2022-10-31T17:04:14;16.70;1.00
37956;DHT22;23776;51.592;7.180;2022-10-31T17:06:41;16.60;1.00
37956;DHT22;23776;51.592;7.180;2022-10-31T17:09:07;16.50;1.00
37956;DHT22;23776;51.592;7.180;2022-10-31T17:11:33;16.50;1.00
37956;DHT22;23776;51.592;7.180;2022-10-31T17:13:59;16.50;1.00
37956;DHT22;23776;51.592;7.180;2022-10-31T17:16:25;16.50;1.00
37956;DHT22;23776;51.592;7.180;2022-10-31T17:18:50;16.40;1.00
37956;DHT22;23776;51.592;7.180;2022-10-31T17:21:21;16.30;1.00
37956;DHT22;23776;51.592;7.180;2022-10-31T17:23:48;16.30;1.00
37956;DHT22;23776;51.592;7.180;2022-10-31T17:26:13;16.20;1.00
37956;DHT22;23776;51.592;7.180;2022-10-31T17:28:39;16.20;1.00
37956;DHT22;23776;51.592;7.180;2022-10-31T17:31:05;16.20;1.00
37956;DHT22;23776;51.592;7.180;2022-10-31T17:33:31;16.10;1.00
37956;DHT22;23776;51.592;7.180;2022-10-31T17:35:56;16.10;1.00
37956;DHT22;23776;51.592;7.180;2022-10-31T17:38:22;16.00;1.00
37956;DHT22;23776;51.592;7.180;2022-10-31T17:40:47;16.30;1.00
37956;DHT22;23776;51.592;7.180;2022-10-31T17:43:16;16.10;1.00
37956;DHT22;23776;51.592;7.180;2022-10-31T17:45:45;16.20;1.00
37956;DHT22;23776;51.592;7.180;2022-10-31T17:48:11;16.10;1.00
37956;DHT22;23776;51.592;7.180;2022-10-31T17:50:37;16.10;1.00
37956;DHT22;23776;51.592;7.180;2022-10-31T17:53:03;16.10;1.00
37956;DHT22;23776;51.592;7.180;2022-10-31T17:55:30;16.10;1.00